sensor_id;sensor_type;location;lat;lon;timestamp;pressure;altitude;pressure_sealevel;temperature;humidity
49461;BME280;35355;49.198;-0.368;2022-08-19T00:01:41;101097.06;;;20.62;64.00
49461;BME280;35355;49.198;-0.368;2022-08-19T00:04:09;101098.19;;;20.61;64.10
49461;BME280;35355;49.198;-0.368;2022-08-19T00:06:36;101110.44;;;20.60;64.55
49461;BME280;35355;49.198;-0.368;2022-08-19T00:09:04;101104.38;;;20.58;64.88
49461;BME280;35355;49.198;-0.368;2022-08-19T00:11:30;101100.31;;;20.55;65.54
49461;BME280;35355;49.198;-0.368;2022-08-19T00:13:57;101101.13;;;20.56;65.94
49461;BME280;35355;49.198;-0.368;2022-08-19T00:16:23;101105.53;;;20.57;66.15
49461;BME280;35355;49.198;-0.368;2022-08-19T00:18:49;101105.84;;;20.55;66.78
49461;BME280;35355;49.198;-0.368;2022-08-19T00:21:15;101097.84;;;20.54;67.53
49461;BME280;35355;49.198;-0.368;2022-08-19T00:23:41;101099.78;;;20.53;67.92
49461;BME280;35355;49.198;-0.368;2022-08-19T00:26:09;101100.13;;;20.51;68.27
49461;BME280;35355;49.198;-0.368;2022-08-19T00:28:34;101094.09;;;20.49;68.78
49461;BME280;35355;49.198;-0.368;2022-08-19T00:31:01;101096.84;;;20.49;69.16
49461;BME280;35355;49.198;-0.368;2022-08-19T00:33:28;101097.19;;;20.48;69.32
49461;BME280;35355;49.198;-0.368;2022-08-19T00:35:58;101098.63;;;20.45;69.64
49461;BME280;35355;49.198;-0.368;2022-08-19T00:38:24;101101.41;;;20.45;69.84
49461;BME280;35355;49.198;-0.368;2022-08-19T00:40:49;101095.69;;;20.42;70.06
49461;BME280;35355;49.198;-0.368;2022-08-19T00:43:19;101103.69;;;20.43;69.97
49461;BME280;35355;49.198;-0.368;2022-08-19T00:45:46;101101.53;;;20.40;70.51
49461;BME280;35355;49.198;-0.368;2022-08-19T00:48:13;101091.91;;;20.38;70.77
49461;BME280;35355;49.198;-0.368;2022-08-19T00:50:40;101094.69;;;20.38;70.97
49461;BME280;35355;49.198;-0.368;2022-08-19T00:53:12;101092.25;;;20.36;71.17
49461;BME280;35355;49.198;-0.368;2022-08-19T00:55:41;101088.63;;;20.36;71.23
49461;BME280;35355;49.198;-0.368;2022-08-19T00:58:10;101081.47;;;20.35;71.48
49461;BME280;35355;49.198;-0.368;2022-08-19T01:00:37;101081.47;;;20.35;71.34
49461;BME280;35355;49.198;-0.368;2022-08-19T01:03:06;101086.69;;;20.36;71.38
49461;BME280;35355;49.198;-0.368;2022-08-19T01:05:32;101084.25;;;20.35;71.57
49461;BME280;35355;49.198;-0.368;2022-08-19T01:07:59;101079.84;;;20.33;71.57
49461;BME280;35355;49.198;-0.368;2022-08-19T01:10:29;101082.59;;;20.33;71.60
49461;BME280;35355;49.198;-0.368;2022-08-19T01:12:58;101069.38;;;20.30;71.68
49461;BME280;35355;49.198;-0.368;2022-08-19T01:15:31;101071.34;;;20.30;71.49
49461;BME280;35355;49.198;-0.368;2022-08-19T01:17:59;101078.50;;;20.31;72.05
49461;BME280;35355;49.198;-0.368;2022-08-19T01:20:26;101072.16;;;20.30;72.36
49461;BME280;35355;49.198;-0.368;2022-08-19T01:22:55;101071.34;;;20.30;72.34
49461;BME280;35355;49.198;-0.368;2022-08-19T01:25:28;101077.69;;;20.30;72.13
49461;BME280;35355;49.198;-0.368;2022-08-19T01:27:54;101071.47;;;20.25;70.73
49461;BME280;35355;49.198;-0.368;2022-08-19T01:30:33;101073.44;;;20.24;72.20
49461;BME280;35355;49.198;-0.368;2022-08-19T01:32:59;101069.34;;;20.22;72.48
49461;BME280;35355;49.198;-0.368;2022-08-19T01:35:27;101066.25;;;20.23;72.82
49461;BME280;35355;49.198;-0.368;2022-08-19T01:37:56;101071.00;;;20.23;73.02
49461;BME280;35355;49.198;-0.368;2022-08-19T01:40:25;101066.09;;;20.20;73.19
49461;BME280;35355;49.198;-0.368;2022-08-19T01:42:52;101063.81;;;20.22;73.36
49461;BME280;35355;49.198;-0.368;2022-08-19T01:45:19;101071.00;;;20.23;73.39
49461;BME280;35355;49.198;-0.368;2022-08-19T01:47:45;101074.88;;;20.22;73.40
49461;BME280;35355;49.198;-0.368;2022-08-19T01:50:12;101077.66;;;20.22;73.48
49461;BME280;35355;49.198;-0.368;2022-08-19T01:52:39;101067.69;;;20.21;73.63
49461;BME280;35355;49.198;-0.368;2022-08-19T01:55:09;101067.69;;;20.21;73.33
49461;BME280;35355;49.198;-0.368;2022-08-19T01:57:35;101064.44;;;20.19;73.49
49461;BME280;35355;49.198;-0.368;2022-08-19T02:00:03;101069.47;;;20.16;73.66
49461;BME280;35355;49.198;-0.368;2022-08-19T02:02:30;101061.78;;;20.13;73.62
49461;BME280;35355;49.198;-0.368;2022-08-19T02:04:56;101058.53;;;20.11;73.78
49461;BME280;35355;49.198;-0.368;2022-08-19T02:07:22;101060.19;;;20.12;73.93
49461;BME280;35355;49.198;-0.368;2022-08-19T02:09:47;101058.22;;;20.13;74.16
49461;BME280;35355;49.198;-0.368;2022-08-19T02:12:13;101054.63;;;20.12;74.21
49461;BME280;35355;49.198;-0.368;2022-08-19T02:14:39;101066.84;;;20.11;74.22
49461;BME280;35355;49.198;-0.368;2022-08-19T02:17:04;101063.28;;;20.11;74.03
49461;BME280;35355;49.198;-0.368;2022-08-19T02:19:30;101071.91;;;20.09;74.51
49461;BME280;35355;49.198;-0.368;2022-08-19T02:21:58;101071.91;;;20.09;74.55
49461;BME280;35355;49.198;-0.368;2022-08-19T02:24:24;101072.72;;;20.10;74.29
49461;BME280;35355;49.198;-0.368;2022-08-19T02:26:49;101066.84;;;20.11;74.56
49461;BME280;35355;49.198;-0.368;2022-08-19T02:29:14;101059.66;;;20.10;74.61
49461;BME280;35355;49.198;-0.368;2022-08-19T02:31:40;101072.06;;;20.13;74.67
49461;BME280;35355;49.198;-0.368;2022-08-19T02:34:05;101066.84;;;20.11;74.52
49461;BME280;35355;49.198;-0.368;2022-08-19T02:36:31;101067.97;;;20.10;74.64
49461;BME280;35355;49.198;-0.368;2022-08-19T02:38:56;101064.88;;;20.12;74.55
49461;BME280;35355;49.198;-0.368;2022-08-19T02:41:27;101062.13;;;20.12;74.42
49461;BME280;35355;49.198;-0.368;2022-08-19T02:43:57;101062.44;;;20.10;74.28
49461;BME280;35355;49.198;-0.368;2022-08-19T02:46:28;101067.97;;;20.10;74.24
49461;BME280;35355;49.198;-0.368;2022-08-19T02:48:57;101057.53;;;20.07;74.32
49461;BME280;35355;49.198;-0.368;2022-08-19T02:51:26;101062.25;;;20.07;74.31
49461;BME280;35355;49.198;-0.368;2022-08-19T02:53:53;101061.44;;;20.06;74.39
49461;BME280;35355;49.198;-0.368;2022-08-19T02:56:19;101065.34;;;20.05;74.27
49461;BME280;35355;49.198;-0.368;2022-08-19T02:58:46;101060.94;;;20.04;74.10
49461;BME280;35355;49.198;-0.368;2022-08-19T03:01:19;101057.69;;;20.02;73.92
49461;BME280;35355;49.198;-0.368;2022-08-19T03:03:45;101058.81;;;20.01;74.38
49461;BME280;35355;49.198;-0.368;2022-08-19T03:06:13;101063.88;;;19.99;74.24
49461;BME280;35355;49.198;-0.368;2022-08-19T03:08:41;101066.00;;;20.02;74.35
49461;BME280;35355;49.198;-0.368;2022-08-19T03:11:13;101061.56;;;20.01;74.08
49461;BME280;35355;49.198;-0.368;2022-08-19T03:13:39;101053.25;;;20.01;74.52
49461;BME280;35355;49.198;-0.368;2022-08-19T03:16:04;101050.50;;;20.01;74.29
49461;BME280;35355;49.198;-0.368;2022-08-19T03:18:30;101042.19;;;20.01;74.39
49461;BME280;35355;49.198;-0.368;2022-08-19T03:20:56;101048.53;;;20.02;74.28
49461;BME280;35355;49.198;-0.368;2022-08-19T03:23:22;101045.28;;;20.00;74.48
49461;BME280;35355;49.198;-0.368;2022-08-19T03:25:49;101046.09;;;20.00;74.47
49461;BME280;35355;49.198;-0.368;2022-08-19T03:28:15;101048.84;;;20.00;74.51
49461;BME280;35355;49.198;-0.368;2022-08-19T03:30:42;101050.50;;;20.01;74.42
49461;BME280;35355;49.198;-0.368;2022-08-19T03:33:10;101046.09;;;20.00;74.40
49461;BME280;35355;49.198;-0.368;2022-08-19T03:35:37;101049.38;;;20.02;74.41
49461;BME280;35355;49.198;-0.368;2022-08-19T03:38:05;101054.91;;;20.02;74.15
49461;BME280;35355;49.198;-0.368;2022-08-19T03:40:32;101060.44;;;20.02;74.16
49461;BME280;35355;49.198;-0.368;2022-08-19T03:42:59;101061.25;;;20.03;74.58
49461;BME280;35355;49.198;-0.368;2022-08-19T03:45:25;101062.59;;;20.05;74.60
49461;BME280;35355;49.198;-0.368;2022-08-19T03:47:51;101059.81;;;20.05;74.59
49461;BME280;35355;49.198;-0.368;2022-08-19T03:50:17;101047.56;;;20.06;74.59
49461;BME280;35355;49.198;-0.368;2022-08-19T03:52:51;101051.19;;;20.07;74.31
49461;BME280;35355;49.198;-0.368;2022-08-19T03:55:17;101049.06;;;20.04;74.42
49461;BME280;35355;49.198;-0.368;2022-08-19T03:57:43;101046.59;;;20.02;74.32
49461;BME280;35355;49.198;-0.368;2022-08-19T04:00:10;101044.47;;;19.99;74.39
49461;BME280;35355;49.198;-0.368;2022-08-19T04:02:36;101058.31;;;19.99;74.46
49461;BME280;35355;49.198;-0.368;2022-08-19T04:05:01;101060.91;;;19.95;74.43
49461;BME280;35355;49.198;-0.368;2022-08-19T04:07:27;101058.13;;;19.95;74.68
49461;BME280;35355;49.198;-0.368;2022-08-19T04:09:52;101060.09;;;19.95;74.87
49461;BME280;35355;49.198;-0.368;2022-08-19T04:12:18;101059.25;;;19.94;74.91
49461;BME280;35355;49.198;-0.368;2022-08-19T04:14:45;101053.22;;;19.92;74.86
49461;BME280;35355;49.198;-0.368;2022-08-19T04:17:10;101045.72;;;19.93;74.85
49461;BME280;35355;49.198;-0.368;2022-08-19T04:19:38;101039.69;;;19.91;74.70
49461;BME280;35355;49.198;-0.368;2022-08-19T04:22:04;101039.19;;;19.89;74.82
49461;BME280;35355;49.198;-0.368;2022-08-19T04:24:29;101046.66;;;19.88;74.84
49461;BME280;35355;49.198;-0.368;2022-08-19T04:26:55;101054.19;;;19.88;74.84
49461;BME280;35355;49.198;-0.368;2022-08-19T04:29:23;101050.75;;;19.91;74.93
49461;BME280;35355;49.198;-0.368;2022-08-19T04:31:50;101052.41;;;19.92;74.86
49461;BME280;35355;49.198;-0.368;2022-08-19T04:34:18;101052.41;;;19.92;74.91
49461;BME280;35355;49.198;-0.368;2022-08-19T04:36:48;101051.25;;;19.93;74.91
49461;BME280;35355;49.198;-0.368;2022-08-19T04:39:18;101057.63;;;19.93;75.10
49461;BME280;35355;49.198;-0.368;2022-08-19T04:41:45;101053.22;;;19.92;75.29
49461;BME280;35355;49.198;-0.368;2022-08-19T04:44:34;101056.00;;;19.92;74.93
49461;BME280;35355;49.198;-0.368;2022-08-19T04:46:59;101053.53;;;19.91;75.28
49461;BME280;35355;49.198;-0.368;2022-08-19T04:49:25;101054.34;;;19.91;75.15
49461;BME280;35355;49.198;-0.368;2022-08-19T04:51:52;101055.50;;;19.90;75.25
49461;BME280;35355;49.198;-0.368;2022-08-19T04:54:20;101053.53;;;19.91;75.35
49461;BME280;35355;49.198;-0.368;2022-08-19T04:56:52;101057.97;;;19.92;75.28
49461;BME280;35355;49.198;-0.368;2022-08-19T04:59:18;101061.53;;;19.92;75.18
49461;BME280;35355;49.198;-0.368;2022-08-19T05:01:45;101060.72;;;19.92;75.35
49461;BME280;35355;49.198;-0.368;2022-08-19T05:04:17;101056.78;;;19.93;75.54
49461;BME280;35355;49.198;-0.368;2022-08-19T05:06:43;101057.97;;;19.92;75.46
49461;BME280;35355;49.198;-0.368;2022-08-19T05:09:08;101061.69;;;19.96;75.34
49461;BME280;35355;49.198;-0.368;2022-08-19T05:11:36;101072.19;;;19.99;75.22
49461;BME280;35355;49.198;-0.368;2022-08-19T05:14:05;101066.13;;;19.97;75.43
49461;BME280;35355;49.198;-0.368;2022-08-19T05:16:30;101071.34;;;19.98;75.45
49461;BME280;35355;49.198;-0.368;2022-08-19T05:18:56;101067.13;;;20.01;75.59
49461;BME280;35355;49.198;-0.368;2022-08-19T05:41:47;101068.78;;;19.34;74.49
49461;BME280;35355;49.198;-0.368;2022-08-19T05:44:17;101067.31;;;19.37;75.21
49461;BME280;35355;49.198;-0.368;2022-08-19T05:46:44;101065.22;;;19.42;76.00
49461;BME280;35355;49.198;-0.368;2022-08-19T05:49:13;101069.50;;;19.49;76.03
49461;BME280;35355;49.198;-0.368;2022-08-19T05:51:39;101066.31;;;19.55;76.20
49461;BME280;35355;49.198;-0.368;2022-08-19T05:54:06;101060.03;;;19.63;76.17
49461;BME280;35355;49.198;-0.368;2022-08-19T05:56:34;101064.78;;;19.72;76.50
49461;BME280;35355;49.198;-0.368;2022-08-19T05:59:06;101062.72;;;19.77;76.14
49461;BME280;35355;49.198;-0.368;2022-08-19T06:01:35;101063.13;;;19.85;76.36
49461;BME280;35355;49.198;-0.368;2022-08-19T06:04:01;101068.53;;;19.90;75.97
49461;BME280;35355;49.198;-0.368;2022-08-19T06:06:28;101071.16;;;19.95;76.29
49461;BME280;35355;49.198;-0.368;2022-08-19T06:08:53;101071.03;;;20.00;76.25
49461;BME280;35355;49.198;-0.368;2022-08-19T06:11:25;101069.25;;;20.04;75.94
49461;BME280;35355;49.198;-0.368;2022-08-19T06:14:00;101074.16;;;20.07;75.89
49461;BME280;35355;49.198;-0.368;2022-08-19T06:16:27;101067.50;;;20.08;75.81
49461;BME280;35355;49.198;-0.368;2022-08-19T06:18:55;101072.88;;;20.13;75.93
49461;BME280;35355;49.198;-0.368;2022-08-19T06:21:24;101073.88;;;20.18;75.85
49461;BME280;35355;49.198;-0.368;2022-08-19T06:23:51;101074.41;;;20.20;75.78
49461;BME280;35355;49.198;-0.368;2022-08-19T06:26:18;101072.59;;;20.24;75.83
49461;BME280;35355;49.198;-0.368;2022-08-19T06:28:46;101070.34;;;20.26;76.01
49461;BME280;35355;49.198;-0.368;2022-08-19T06:31:16;101069.69;;;20.29;75.74
49461;BME280;35355;49.198;-0.368;2022-08-19T06:33:44;101072.97;;;20.31;75.91
49461;BME280;35355;49.198;-0.368;2022-08-19T06:36:41;101069.88;;;20.32;75.36
49461;BME280;35355;49.198;-0.368;2022-08-19T06:39:11;101072.31;;;20.34;75.86
49461;BME280;35355;49.198;-0.368;2022-08-19T06:41:41;101068.91;;;20.37;75.77
49461;BME280;35355;49.198;-0.368;2022-08-19T06:44:09;101075.97;;;20.43;75.90
49461;BME280;35355;49.198;-0.368;2022-08-19T06:46:36;101075.47;;;20.50;75.85
49461;BME280;35355;49.198;-0.368;2022-08-19T06:49:02;101078.13;;;20.55;75.62
49461;BME280;35355;49.198;-0.368;2022-08-19T06:51:28;101073.75;;;20.63;75.57
49461;BME280;35355;49.198;-0.368;2022-08-19T06:53:55;101071.66;;;20.68;75.35
49461;BME280;35355;49.198;-0.368;2022-08-19T06:56:27;101083.91;;;20.76;75.15
49461;BME280;35355;49.198;-0.368;2022-08-19T06:59:06;101077.88;;;20.83;74.99
49461;BME280;35355;49.198;-0.368;2022-08-19T07:01:58;101083.78;;;20.90;74.80
49461;BME280;35355;49.198;-0.368;2022-08-19T07:04:28;101079.56;;;21.01;74.71
49461;BME280;35355;49.198;-0.368;2022-08-19T07:07:00;101073.03;;;21.15;74.90
49461;BME280;35355;49.198;-0.368;2022-08-19T07:09:27;101080.06;;;21.30;74.76
49461;BME280;35355;49.198;-0.368;2022-08-19T07:11:54;101085.13;;;21.45;74.83
49461;BME280;35355;49.198;-0.368;2022-08-19T07:14:23;101066.53;;;21.54;74.06
49461;BME280;35355;49.198;-0.368;2022-08-19T07:16:51;101072.56;;;21.57;73.87
49461;BME280;35355;49.198;-0.368;2022-08-19T07:19:18;101072.09;;;21.54;73.83
49461;BME280;35355;49.198;-0.368;2022-08-19T07:21:45;101074.06;;;21.54;73.40
49461;BME280;35355;49.198;-0.368;2022-08-19T07:24:11;101080.25;;;21.51;73.75
49461;BME280;35355;49.198;-0.368;2022-08-19T07:26:40;101076.16;;;21.48;73.58
49461;BME280;35355;49.198;-0.368;2022-08-19T07:29:06;101084.81;;;21.47;73.54
49461;BME280;35355;49.198;-0.368;2022-08-19T07:31:33;101083.81;;;21.43;73.11
49461;BME280;35355;49.198;-0.368;2022-08-19T07:34:05;101089.19;;;21.39;73.30
49461;BME280;35355;49.198;-0.368;2022-08-19T07:36:37;101086.59;;;21.34;73.21
49461;BME280;35355;49.198;-0.368;2022-08-19T07:39:06;101092.47;;;21.32;73.22
49461;BME280;35355;49.198;-0.368;2022-08-19T07:41:32;101103.06;;;21.30;73.27
49461;BME280;35355;49.198;-0.368;2022-08-19T07:44:00;101096.25;;;21.28;73.31
49461;BME280;35355;49.198;-0.368;2022-08-19T07:46:33;101101.94;;;21.23;73.51
49461;BME280;35355;49.198;-0.368;2022-08-19T07:49:02;101102.59;;;21.19;73.56
49461;BME280;35355;49.198;-0.368;2022-08-19T07:51:28;101099.34;;;21.17;73.51
49461;BME280;35355;49.198;-0.368;2022-08-19T07:53:54;101108.00;;;21.16;73.66
49461;BME280;35355;49.198;-0.368;2022-08-19T07:56:20;101122.84;;;21.11;73.59
49461;BME280;35355;49.198;-0.368;2022-08-19T07:58:48;101112.06;;;21.10;73.79
49461;BME280;35355;49.198;-0.368;2022-08-19T08:01:19;101116.78;;;21.09;73.49
49461;BME280;35355;49.198;-0.368;2022-08-19T08:03:46;101107.47;;;21.05;73.72
49461;BME280;35355;49.198;-0.368;2022-08-19T08:06:30;101118.56;;;21.05;73.83
49461;BME280;35355;49.198;-0.368;2022-08-19T08:09:16;101121.66;;;21.03;73.57
49461;BME280;35355;49.198;-0.368;2022-08-19T08:11:52;101124.75;;;21.02;73.52
49461;BME280;35355;49.198;-0.368;2022-08-19T08:14:22;101120.38;;;21.01;73.51
49461;BME280;35355;49.198;-0.368;2022-08-19T08:16:49;101122.63;;;20.99;73.77
49461;BME280;35355;49.198;-0.368;2022-08-19T08:19:18;101124.59;;;20.98;73.88
49461;BME280;35355;49.198;-0.368;2022-08-19T08:21:46;101122.97;;;20.97;73.89
49461;BME280;35355;49.198;-0.368;2022-08-19T08:24:12;101119.88;;;20.99;73.73
49461;BME280;35355;49.198;-0.368;2022-08-19T08:26:38;101125.59;;;21.02;74.14
49461;BME280;35355;49.198;-0.368;2022-08-19T08:29:04;101120.06;;;21.02;73.91
49461;BME280;35355;49.198;-0.368;2022-08-19T08:31:32;101122.00;;;21.02;73.98
49461;BME280;35355;49.198;-0.368;2022-08-19T08:34:00;101126.41;;;21.03;73.98
49461;BME280;35355;49.198;-0.368;2022-08-19T08:36:27;101132.44;;;21.05;74.00
49461;BME280;35355;49.198;-0.368;2022-08-19T08:38:52;101131.81;;;21.08;73.95
49461;BME280;35355;49.198;-0.368;2022-08-19T08:47:10;101130.22;;;21.25;73.35
49461;BME280;35355;49.198;-0.368;2022-08-19T08:49:54;101131.69;;;21.31;73.21
49461;BME280;35355;49.198;-0.368;2022-08-19T08:52:31;101137.22;;;21.31;73.43
49461;BME280;35355;49.198;-0.368;2022-08-19T08:55:07;101138.88;;;21.32;73.20
49461;BME280;35355;49.198;-0.368;2022-08-19T08:57:39;101132.50;;;21.31;73.11
49461;BME280;35355;49.198;-0.368;2022-08-19T09:00:09;101142.78;;;21.31;72.95
49461;BME280;35355;49.198;-0.368;2022-08-19T09:02:37;101136.72;;;21.29;73.20
49461;BME280;35355;49.198;-0.368;2022-08-19T09:05:04;101134.28;;;21.27;73.27
49461;BME280;35355;49.198;-0.368;2022-08-19T09:10:43;101125.28;;;21.39;73.12
49461;BME280;35355;49.198;-0.368;2022-08-19T09:15:56;101128.25;;;21.43;73.25
49461;BME280;35355;49.198;-0.368;2022-08-19T09:18:24;101127.59;;;21.46;73.14
49461;BME280;35355;49.198;-0.368;2022-08-19T09:20:50;101122.19;;;21.49;73.22
49461;BME280;35355;49.198;-0.368;2022-08-19T09:23:16;101120.94;;;21.55;73.07
49461;BME280;35355;49.198;-0.368;2022-08-19T09:25:42;101116.66;;;21.67;72.73
49461;BME280;35355;49.198;-0.368;2022-08-19T09:28:08;101125.84;;;21.76;72.41
49461;BME280;35355;49.198;-0.368;2022-08-19T09:30:39;101116.66;;;21.84;72.17
49461;BME280;35355;49.198;-0.368;2022-08-19T09:33:06;101125.16;;;21.88;72.15
49461;BME280;35355;49.198;-0.368;2022-08-19T09:35:32;101125.31;;;21.92;71.81
49461;BME280;35355;49.198;-0.368;2022-08-19T09:38:01;101135.28;;;21.93;71.67
49461;BME280;35355;49.198;-0.368;2022-08-19T09:40:28;101129.22;;;21.90;71.76
49461;BME280;35355;49.198;-0.368;2022-08-19T09:42:54;101137.91;;;21.89;71.89
49461;BME280;35355;49.198;-0.368;2022-08-19T09:45:21;101133.50;;;21.88;71.92
49461;BME280;35355;49.198;-0.368;2022-08-19T09:47:49;101137.09;;;21.88;71.53
49461;BME280;35355;49.198;-0.368;2022-08-19T09:50:16;101138.41;;;21.91;71.63
49461;BME280;35355;49.198;-0.368;2022-08-19T09:52:44;101138.53;;;21.95;71.55
49461;BME280;35355;49.198;-0.368;2022-08-19T09:55:11;101142.63;;;21.97;71.53
49461;BME280;35355;49.198;-0.368;2022-08-19T09:57:37;101147.34;;;21.97;71.20
49461;BME280;35355;49.198;-0.368;2022-08-19T10:00:06;101148.19;;;21.97;71.03
49461;BME280;35355;49.198;-0.368;2022-08-19T10:02:32;101150.97;;;21.97;71.09
49461;BME280;35355;49.198;-0.368;2022-08-19T10:04:59;101144.28;;;21.98;71.09
49461;BME280;35355;49.198;-0.368;2022-08-19T10:07:43;101154.72;;;22.01;71.11
49461;BME280;35355;49.198;-0.368;2022-08-19T10:10:10;101144.41;;;22.02;71.14
49461;BME280;35355;49.198;-0.368;2022-08-19T10:12:36;101143.63;;;22.01;71.53
49461;BME280;35355;49.198;-0.368;2022-08-19T10:15:04;101152.44;;;22.03;71.30
49461;BME280;35355;49.198;-0.368;2022-08-19T10:17:29;101150.97;;;22.06;71.47
49461;BME280;35355;49.198;-0.368;2022-08-19T10:19:58;101151.94;;;22.10;71.71
49461;BME280;35355;49.198;-0.368;2022-08-19T10:22:25;101163.53;;;22.12;72.08
49461;BME280;35355;49.198;-0.368;2022-08-19T10:24:50;101157.16;;;22.12;72.49
49461;BME280;35355;49.198;-0.368;2022-08-19T10:27:17;101159.94;;;22.12;72.78
49461;BME280;35355;49.198;-0.368;2022-08-19T10:29:42;101156.34;;;22.11;72.77
49461;BME280;35355;49.198;-0.368;2022-08-19T10:32:09;101154.06;;;22.13;72.95
49461;BME280;35355;49.198;-0.368;2022-08-19T10:34:38;101153.41;;;22.16;73.19
49461;BME280;35355;49.198;-0.368;2022-08-19T10:37:05;101159.44;;;22.18;73.33
49461;BME280;35355;49.198;-0.368;2022-08-19T10:39:35;101154.69;;;22.19;72.70
49461;BME280;35355;49.198;-0.368;2022-08-19T10:42:05;101157.97;;;22.12;72.78
49461;BME280;35355;49.198;-0.368;2022-08-19T10:44:33;101158.97;;;22.07;73.34
49461;BME280;35355;49.198;-0.368;2022-08-19T10:47:00;101159.97;;;22.03;73.92
49461;BME280;35355;49.198;-0.368;2022-08-19T10:49:26;101160.63;;;22.00;74.03
49461;BME280;35355;49.198;-0.368;2022-08-19T10:51:52;101158.97;;;21.99;74.23
49461;BME280;35355;49.198;-0.368;2022-08-19T10:54:36;101158.00;;;21.95;74.30
49461;BME280;35355;49.198;-0.368;2022-08-19T10:57:20;101155.06;;;21.91;74.84
49461;BME280;35355;49.198;-0.368;2022-08-19T10:59:49;101154.25;;;21.90;75.11
49461;BME280;35355;49.198;-0.368;2022-08-19T11:02:15;101158.19;;;21.89;75.11
49461;BME280;35355;49.198;-0.368;2022-08-19T11:04:40;101155.75;;;21.88;75.23
49461;BME280;35355;49.198;-0.368;2022-08-19T11:07:06;101164.38;;;21.86;75.46
49461;BME280;35355;49.198;-0.368;2022-08-19T11:09:40;101164.38;;;21.86;75.43
49461;BME280;35355;49.198;-0.368;2022-08-19T11:12:06;101155.75;;;21.79;73.99
49461;BME280;35355;49.198;-0.368;2022-08-19T11:14:33;101160.78;;;21.77;75.17
49461;BME280;35355;49.198;-0.368;2022-08-19T11:16:59;101160.78;;;21.77;75.97
49461;BME280;35355;49.198;-0.368;2022-08-19T11:19:25;101163.25;;;21.79;76.20
49461;BME280;35355;49.198;-0.368;2022-08-19T11:21:51;101159.00;;;21.81;76.45
49461;BME280;35355;49.198;-0.368;2022-08-19T11:24:24;101169.44;;;21.84;75.95
49461;BME280;35355;49.198;-0.368;2022-08-19T11:26:53;101167.47;;;21.85;76.62
49461;BME280;35355;49.198;-0.368;2022-08-19T11:29:22;101167.00;;;21.83;76.60
49461;BME280;35355;49.198;-0.368;2022-08-19T11:31:53;101163.09;;;21.84;76.76
49461;BME280;35355;49.198;-0.368;2022-08-19T11:34:27;101165.69;;;21.89;76.57
49461;BME280;35355;49.198;-0.368;2022-08-19T11:36:53;101162.09;;;21.97;77.23
49461;BME280;35355;49.198;-0.368;2022-08-19T11:39:23;101166.34;;;22.03;77.06
49461;BME280;35355;49.198;-0.368;2022-08-19T11:41:48;101160.28;;;22.10;76.80
49461;BME280;35355;49.198;-0.368;2022-08-19T11:44:14;101160.09;;;22.15;77.07
49461;BME280;35355;49.198;-0.368;2022-08-19T11:46:42;101154.03;;;22.22;77.04
49461;BME280;35355;49.198;-0.368;2022-08-19T11:49:13;101165.31;;;22.25;76.90
49461;BME280;35355;49.198;-0.368;2022-08-19T11:51:39;101150.25;;;22.27;76.94
49461;BME280;35355;49.198;-0.368;2022-08-19T11:54:07;101156.16;;;22.25;76.38
49461;BME280;35355;49.198;-0.368;2022-08-19T11:56:33;101162.72;;;22.20;76.71
49461;BME280;35355;49.198;-0.368;2022-08-19T11:59:00;101157.16;;;22.20;76.90
49461;BME280;35355;49.198;-0.368;2022-08-19T12:01:26;101163.84;;;22.19;77.08
49461;BME280;35355;49.198;-0.368;2022-08-19T12:03:54;101168.75;;;22.22;76.94
49461;BME280;35355;49.198;-0.368;2022-08-19T12:06:29;101167.41;;;22.29;76.60
49461;BME280;35355;49.198;-0.368;2022-08-19T12:09:01;101157.09;;;22.38;77.08
49461;BME280;35355;49.198;-0.368;2022-08-19T12:11:28;101158.59;;;22.44;76.74
49461;BME280;35355;49.198;-0.368;2022-08-19T12:13:54;101157.25;;;22.50;76.65
49461;BME280;35355;49.198;-0.368;2022-08-19T12:16:25;101157.88;;;22.56;76.20
49461;BME280;35355;49.198;-0.368;2022-08-19T12:18:52;101161.47;;;22.56;76.11
49461;BME280;35355;49.198;-0.368;2022-08-19T12:21:21;101159.84;;;22.55;76.11
49461;BME280;35355;49.198;-0.368;2022-08-19T12:23:49;101166.72;;;22.58;76.43
49461;BME280;35355;49.198;-0.368;2022-08-19T12:26:15;101169.63;;;22.62;76.34
49461;BME280;35355;49.198;-0.368;2022-08-19T12:28:41;101173.38;;;22.66;75.95
49461;BME280;35355;49.198;-0.368;2022-08-19T12:31:07;101161.59;;;22.69;75.80
49461;BME280;35355;49.198;-0.368;2022-08-19T12:33:34;101156.50;;;22.71;75.73
49461;BME280;35355;49.198;-0.368;2022-08-19T12:36:03;101157.44;;;22.75;75.54
49461;BME280;35355;49.198;-0.368;2022-08-19T12:38:29;101161.22;;;22.79;75.83
49461;BME280;35355;49.198;-0.368;2022-08-19T12:40:55;101152.00;;;22.87;75.34
49461;BME280;35355;49.198;-0.368;2022-08-19T12:43:21;101161.78;;;22.93;75.42
49461;BME280;35355;49.198;-0.368;2022-08-19T12:45:48;101156.69;;;22.95;74.62
49461;BME280;35355;49.198;-0.368;2022-08-19T12:48:14;101162.00;;;22.88;74.54
49461;BME280;35355;49.198;-0.368;2022-08-19T12:50:44;101157.41;;;22.84;74.83
49461;BME280;35355;49.198;-0.368;2022-08-19T12:53:14;101176.94;;;22.75;75.04
49461;BME280;35355;49.198;-0.368;2022-08-19T12:55:41;101172.56;;;22.65;75.52
49461;BME280;35355;49.198;-0.368;2022-08-19T12:58:08;101169.34;;;22.54;75.86
49461;BME280;35355;49.198;-0.368;2022-08-19T13:00:35;101163.97;;;22.49;76.09
49461;BME280;35355;49.198;-0.368;2022-08-19T13:03:01;101174.09;;;22.45;76.79
49461;BME280;35355;49.198;-0.368;2022-08-19T13:05:29;101176.41;;;22.43;76.43
49461;BME280;35355;49.198;-0.368;2022-08-19T13:07:56;101173.13;;;22.41;76.93
49461;BME280;35355;49.198;-0.368;2022-08-19T13:10:24;101165.97;;;22.40;77.24
49461;BME280;35355;49.198;-0.368;2022-08-19T13:12:53;101161.19;;;22.40;77.13
49461;BME280;35355;49.198;-0.368;2022-08-19T13:15:20;101163.97;;;22.40;77.48
49461;BME280;35355;49.198;-0.368;2022-08-19T13:17:48;101162.69;;;22.38;77.26